Six Lakes, Michigan
Current Conditions -  °F | °C
As of 3:12 PM on Thursday 18 Dec 2014 (Local Time) from KAMN Reporting Station
Overcast Overcast  
Wind Chill: 24°   Ceiling: 1400
Heat Index: 30°   Visibility: 10mi
Dew Point: 26°   Wind: 6mph
Humidity: 85%   Direction: 310°NW
Pressure: 30.16"   Gusts: NA
Location:  43.42°N, 85.15°W
Report Text: KAMN 182012Z AUTO 31005KT 10SM OVC014 M01/M03 A3016 RMK AO2 T10101032
Loading
Personal Weather Stations






























Interactive Weather Map New forecast layout! Learn more

10-Day Weather Forecast

Advertisements
Track Severe Weather on mobile